Memphis International Airport
KMEM : rendu visible

Aérodrome :











RETROUVEZ-NOUS SUR...

 
LOGIN :

S'inscrire | Disclaimer

   EN    FR    IT 

 









Légende :    VFR   VFR Marginal   IFR   IFR Intensif   IFR Très Intensif
Visi : 
Plafond : 
>= 8 km
>= 3000ft
5 à 8 km
1000 à 3000 ft
1500m à 5 km
500 à 1000 ft
800 à 1500m
200 à 500 ft
< 800m
< 200 ft
Symboles :   Orages  Brouillard  Fortes neiges  Fortes précipitations  Vent > 20 kt






- Altitude de l'aérodrome : 341 ft
- Code IATA : MEM


KMEM - Memphis International

DERNIER METAR :
  • 191454Z 30010KT 10SM CLR 13/05 A2988 RMK AO2 SLP117 T01280050 53024 $

METARs EXPIRÉS :
  • 191354Z 28004KT 10SM CLR 10/04 A2985 RMK AO2 SLP108 T01000044 $
  • 191254Z 24004KT 10SM CLR 07/03 A2982 RMK AO2 SLP099 T00720033 $

TAF KMEM
Valide du 19 à 15h jusqu'au 20 à 18h UTC


191501Z 1915/2018 30010G15KT P6SM SKC
FM200000 VRB02KT P6SM SKC



MET'MAP, la Météo Aéronautique d'un coup d'oeil ! - Copyright ORBIFLY Décembre 2007 - Disclaimer

ORBIFLY MET'MAP TEAM :

Programmation & Développement : Alexandra Zaïnal
Conception & Développement : Baudouin d'Aumeries
Co-Programmation & Développement : Marc-Olivier Méhu
Soutien technique & logistique : Manuel Goepfert

Contact : metmap@orbifly.com




SOURCES & CREDITS :

   NOAA       Earth
Advisory